Dallas-Fort Worth International Airport

KDFW · Tejas, Estados Unidos

METAR pasados KDFW · Dallas-Fort Worth International Airport

A continuación puedes ver los METAR de los últimos días. Selecciona un año para ver los METAR más antiguos, desde el año 2007 en adelante.

16 de julio de 2024

Hora Código Tiempo Temp. Visibilidad Cielo nuboso Viento METAR/SPECI
09:53
V
31 °C 10 mi - 200° 200° 14 kt METAR KDFW 161453Z 20014KT 10SM FEW250 31/21 A2995 RMK AO2 SLP132 T03110211 50009
08:53
V
29 °C 10 mi - 200° 200° 11 kt METAR KDFW 161353Z 20011KT 10SM CLR 29/22 A2996 RMK AO2 SLP135 T02940217
07:53
V
28 °C 10 mi - 200° 200° 12 kt METAR KDFW 161253Z 20012KT 10SM CLR 28/21 A2995 RMK AO2 SLP130 T02830211
06:53
V
27 °C 10 mi - 200° 200° 11 kt METAR KDFW 161153Z 20011KT 10SM CLR 27/21 A2992 RMK AO2 SLP122 T02720211 10300 20272 53015
05:53
V
28 °C 10 mi - 190° 190° 15 kt METAR KDFW 161053Z 19015KT 10SM CLR 28/21 A2990 RMK AO2 SLP113 T02780211
04:53
V
28 °C 10 mi - 190° 190° 12 kt METAR KDFW 160953Z 19012KT 10SM CLR 28/21 A2989 RMK AO2 SLP109 T02780211
03:53
V
28 °C 10 mi - 190° 190° 11 kt METAR KDFW 160853Z 19011KT 10SM CLR 28/21 A2988 RMK AO2 SLP107 T02830211 58002
02:53
V
29 °C 10 mi - 190° 190° 11 kt METAR KDFW 160753Z 19011KT 10SM CLR 29/22 A2988 RMK AO2 SLP107 T02890217
01:53
V
29 °C 10 mi - 190° 190° 14 kt METAR KDFW 160653Z 19014KT 10SM CLR 29/21 A2989 RMK AO2 SLP110 T02940211
00:53
V
30 °C 10 mi - 180° 180° 10 - 19 kt METAR KDFW 160553Z 18010G19KT 10SM CLR 30/21 A2989 RMK AO2 SLP109 T03000211 10367 20300 403780256 51004

15 de julio de 2024

Hora Código Tiempo Temp. Visibilidad Cielo nuboso Viento METAR/SPECI
23:53
V
31 °C 10 mi - 180° 180° 10 kt METAR KDFW 160453Z 18010KT 10SM CLR 31/22 A2988 RMK AO2 SLP109 T03060217
22:53
V
32 °C 10 mi - 170° 170° 14 kt METAR KDFW 160353Z 17014KT 10SM CLR 32/21 A2989 RMK AO2 SLP109 T03170206
21:53
V
33 °C 10 mi - 160° 160° 8 kt METAR KDFW 160253Z 16008KT 10SM CLR 33/19 A2988 RMK AO2 SLP106 T03280189 53006
20:53
V
34 °C 10 mi - 170° 170° 9 kt METAR KDFW 160153Z 17009KT 10SM CLR 34/19 A2986 RMK AO2 SLP101 T03390194
19:53
V
35 °C 10 mi - 180° 180° 14 kt METAR KDFW 160053Z 18014KT 10SM CLR 35/20 A2985 RMK AO2 SLP099 T03500200
18:53
V
36 °C 10 mi - 190° 190° 10 kt METAR KDFW 152353Z 19010KT 10SM FEW075 36/20 A2986 RMK AO2 SLP099 T03610200 10378 20344 56016
17:53
V
37 °C 10 mi - 190° 190° 16 - 20 kt METAR KDFW 152253Z 19016G20KT 10SM FEW070 37/18 A2987 RMK AO2 SLP104 T03720183
16:53
V
37 °C 10 mi - 200° 200° 12 - 19 kt METAR KDFW 152153Z 20012G19KT 10SM FEW070 37/19 A2989 RMK AO2 SLP111 T03720189
15:53
V
37 °C 10 mi - 210° 210° 9 - 22 kt METAR KDFW 152053Z 21009G22KT 10SM FEW070 37/21 A2991 RMK AO2 SLP116 T03670206 58025
14:53
V
37 °C 10 mi - 210° 210° 16 - 21 kt METAR KDFW 151953Z 21016G21KT 10SM FEW060 37/20 A2994 RMK AO2 SLP126 T03670200
13:53
V
36 °C 10 mi - 190° 190° 15 - 20 kt METAR KDFW 151853Z 19015G20KT 10SM FEW045 36/21 A2996 RMK AO2 PK WND 19026/1806 SLP133 T03560206
12:53
V
34 °C 10 mi - 210° 210° 11 - 17 kt METAR KDFW 151753Z 21011G17KT 10SM FEW050 34/23 A2998 RMK AO2 SLP141 T03440228 10344 20256 58018
11:53
V
34 °C 10 mi - 190° 190° 11 kt METAR KDFW 151653Z 19011KT 10SM FEW045 34/23 A3001 RMK AO2 SLP150 T03390228
10:53
V
32 °C 10 mi - 190° 190° 12 kt METAR KDFW 151553Z 19012KT 10SM CLR 32/23 A3001 RMK AO2 SLP153 T03170228
09:53
V
30 °C 10 mi - 200° 200° 14 kt METAR KDFW 151453Z 20014KT 10SM CLR 30/23 A3003 RMK AO2 SLP160 T03000228 50007
08:53
V
28 °C 10 mi - 210° 210° 13 kt METAR KDFW 151353Z 21013KT 10SM CLR 28/23 A3004 RMK AO2 SLP160 T02830228
07:53
V
27 °C 10 mi - 190° 190° 12 kt METAR KDFW 151253Z 19012KT 10SM FEW250 27/22 A3002 RMK AO2 SLP155 T02670222 $
06:53
V
26 °C 10 mi - 170° 170° 7 kt METAR KDFW 151153Z 17007KT 10SM FEW250 26/22 A3001 RMK AO2 SLP152 T02560217 10294 20256 52007 $
05:53
V
26 °C 10 mi - 190° 190° 8 kt METAR KDFW 151053Z 19008KT 10SM CLR 26/22 A3000 RMK AO2 SLP150 T02610217 $
04:53
V
26 °C 10 mi - 190° 190° 6 kt METAR KDFW 150953Z 19006KT 10SM CLR 26/21 A3000 RMK AO2 SLP148 T02610211 $
03:53
V
27 °C 10 mi - 200° 200° 9 kt METAR KDFW 150853Z 20009KT 10SM CLR 27/21 A2999 RMK AO2 SLP145 T02720211 55004 $
02:53
V
28 °C 10 mi - 200° 200° 9 kt METAR KDFW 150753Z 20009KT 10SM CLR 28/21 A2999 RMK AO2 SLP145 T02780211 $
01:53
V
29 °C 10 mi - 200° 200° 13 kt METAR KDFW 150653Z 20013KT 10SM CLR 29/21 A3000 RMK AO2 SLP147 T02890211 $
00:53
V
29 °C 10 mi - 190° 190° 12 kt METAR KDFW 150553Z 19012KT 10SM CLR 29/22 A3000 RMK AO2 SLP149 T02940217 10361 20294 403720250 50005 $

14 de julio de 2024

Hora Código Tiempo Temp. Visibilidad Cielo nuboso Viento METAR/SPECI
23:53
V
30 °C 10 mi - 180° 180° 15 - 22 kt METAR KDFW 150453Z 18015G22KT 10SM CLR 30/21 A3001 RMK AO2 SLP151 T03000211 $
22:53
V
31 °C 10 mi - 180° 180° 12 - 20 kt METAR KDFW 150353Z 18012G20KT 10SM CLR 31/21 A3001 RMK AO2 SLP150 T03110211 $
21:53
V
32 °C 10 mi - 180° 180° 11 - 22 kt METAR KDFW 150253Z 18011G22KT 10SM CLR 32/21 A2999 RMK AO2 SLP144 T03220206 53004 $
20:53
V
33 °C 10 mi - 170° 170° 9 kt METAR KDFW 150153Z 17009KT 10SM FEW080 33/18 A2998 RMK AO2 SLP142 T03330183 $
19:53
V
34 °C 10 mi - 180° 180° 13 - 20 kt METAR KDFW 150053Z 18013G20KT 10SM FEW070 34/19 A2997 RMK AO2 SLP139 T03440189 $
18:53
V
36 °C 10 mi - 190° 190° 14 kt METAR KDFW 142353Z 19014KT 10SM FEW070 36/19 A2998 RMK AO2 SLP140 T03560189 10372 20339 56011 $
17:53
V
36 °C 10 mi - 190° 190° 11 kt METAR KDFW 142253Z 19011KT 10SM FEW070 36/19 A2998 RMK AO2 SLP140 T03610194 $
16:53
V
37 °C 10 mi - 180° 180° 11 kt METAR KDFW 142153Z 18011KT 10SM FEW060 37/20 A2999 RMK AO2 SLP144 T03670200 $
15:53
V
36 °C 10 mi - 180° 180° 12 kt METAR KDFW 142053Z 18012KT 10SM SCT060 36/21 A3001 RMK AO2 SLP151 T03610206 58027 $
14:53
V
36 °C 10 mi - 190° 190° 12 - 20 kt METAR KDFW 141953Z 19012G20KT 10SM SCT060 36/21 A3004 RMK AO2 SLP161 T03610211 $
13:53
V
35 °C 10 mi - 180° 180° 11 - 16 kt METAR KDFW 141853Z 18011G16KT 10SM SCT050 SCT065 35/22 A3006 RMK AO2 SLP169 T03500217 $
12:53
V
34 °C 10 mi - 220° 220° 12 - 19 kt METAR KDFW 141753Z 22012G19KT 10SM SCT050 34/22 A3009 RMK AO2 SLP178 T03390222 10344 20250 58015 $
11:53
V
33 °C 10 mi - 190° 190° 10 kt METAR KDFW 141653Z 19010KT 10SM FEW045 33/22 A3011 RMK AO2 SLP186 T03280222 $
10:53
V
31 °C 10 mi - 220° 220° 11 - 17 kt METAR KDFW 141553Z 22011G17KT 10SM FEW030 31/23 A3013 RMK AO2 SLP192 T03110228 $
09:53
V
29 °C 10 mi - 240° 240° 10 kt METAR KDFW 141453Z 24010KT 10SM FEW025 29/23 A3013 RMK AO2 SLP194 T02940228 51007 $
08:53
V
28 °C 10 mi - 210° 210° 11 kt METAR KDFW 141353Z 21011KT 10SM FEW020 28/23 A3013 RMK AO2 SLP193 T02780228 $
07:53
V
26 °C 10 mi - 200° 200° 9 kt METAR KDFW 141253Z 20009KT 10SM CLR 26/22 A3012 RMK AO2 SLP191 T02610222 $
06:53
V
25 °C 10 mi - 180° 180° 8 kt METAR KDFW 141153Z 18008KT 10SM CLR 25/22 A3011 RMK AO2 SLP186 T02500222 10272 20250 51006 $
05:53
V
26 °C 10 mi - 190° 190° 9 kt METAR KDFW 141053Z 19009KT 10SM CLR 26/22 A3010 RMK AO2 SLP183 T02560222 $
04:53
V
26 °C 10 mi - 180° 180° 8 kt METAR KDFW 140953Z 18008KT 10SM CLR 26/22 A3010 RMK AO2 SLP182 T02560222 $
03:53
V
26 °C 10 mi - 180° 180° 10 kt METAR KDFW 140853Z 18010KT 10SM FEW250 26/22 A3009 RMK AO2 SLP180 T02560222 58006 $
02:53
V
27 °C 10 mi - 190° 190° 11 kt METAR KDFW 140753Z 19011KT 10SM FEW250 27/22 A3010 RMK AO2 SLP183 T02670222 $
01:53
V
27 °C 10 mi - 180° 180° 10 kt METAR KDFW 140653Z 18010KT 10SM FEW250 27/22 A3010 RMK AO2 SLP185 T02670222 $
00:53
V
27 °C 10 mi - 170° 170° 11 kt METAR KDFW 140553Z 17011KT 10SM CLR 27/22 A3011 RMK AO2 SLP186 T02720217 10344 20272 403500244 51006 $
Cambiar esta información